Time;durP1;ratioP1;P1;durP2;ratioP2;P2;SDS_P1;SDS_P2;PMS_P1;PMS_P2;Temp;Humidity;BMP_temperature;BMP_pressure;BME280_temperature;BME280_humidity;BME280_pressure;Samples;Min_cycle;Max_cycle;Signal;HPM_P1;HPM_P2
2023/08/20 00:01:13;;;;;;;13.77;8.52;;;;;;;21.00;100.00;99154.53;5064732;28;20062;-71
2023/08/20 00:03:40;;;;;;;12.45;8.85;;;;;;;20.86;100.00;99153.34;5078459;28;20020;-71
2023/08/20 00:06:06;;;;;;;16.27;9.18;;;;;;;20.83;100.00;99156.59;5068866;28;20048;-71
2023/08/20 00:08:31;;;;;;;13.43;9.30;;;;;;;20.93;100.00;99151.19;5052140;28;20059;-71
2023/08/20 00:10:57;;;;;;;13.35;9.38;;;;;;;20.97;100.00;99160.56;5067716;28;20078;-71
2023/08/20 00:13:22;;;;;;;12.93;9.13;;;;;;;20.97;100.00;99155.91;5055981;28;20032;-71
2023/08/20 00:15:48;;;;;;;16.65;8.65;;;;;;;21.04;100.00;99161.19;5064541;28;20103;-71
2023/08/20 00:18:14;;;;;;;15.68;9.73;;;;;;;21.02;100.00;99163.38;5058546;28;20039;-71
2023/08/20 00:20:40;;;;;;;14.45;10.40;;;;;;;20.95;100.00;99151.75;5057433;28;20025;-71
2023/08/20 00:23:06;;;;;;;14.43;9.32;;;;;;;21.00;100.00;99173.81;5065553;28;20028;-71
2023/08/20 00:25:31;;;;;;;14.68;10.20;;;;;;;21.02;100.00;99169.69;5056464;28;20024;-71
2023/08/20 00:27:57;;;;;;;16.63;10.63;;;;;;;21.03;100.00;99162.28;5059040;28;20112;-71
2023/08/20 00:30:22;;;;;;;13.30;9.85;;;;;;;21.05;100.00;99151.84;5068044;28;20508;-71
2023/08/20 00:32:48;;;;;;;15.60;10.00;;;;;;;21.09;100.00;99177.75;5059451;28;20025;-71
2023/08/20 00:35:14;;;;;;;14.27;10.30;;;;;;;21.10;100.00;99170.31;5065297;28;20107;-71
2023/08/20 00:37:39;;;;;;;13.50;9.88;;;;;;;21.08;100.00;99178.81;5062148;28;20107;-71
2023/08/20 00:40:09;;;;;;;13.07;9.43;;;;;;;21.00;100.00;99166.38;5068063;28;20028;-71
2023/08/20 00:42:36;;;;;;;14.25;8.60;;;;;;;21.11;100.00;99182.97;5071569;28;20073;-71
2023/08/20 00:45:03;;;;;;;14.07;9.30;;;;;;;21.09;100.00;99174.13;5065625;28;20016;-71
2023/08/20 00:47:31;;;;;;;13.63;9.93;;;;;;;21.07;100.00;99179.91;5071023;28;20041;-71
2023/08/20 00:50:00;;;;;;;13.80;9.43;;;;;;;21.01;100.00;99176.31;5063929;28;20107;-71
2023/08/20 00:52:26;;;;;;;13.95;10.98;;;;;;;20.98;100.00;99167.72;5071335;28;20028;-71
2023/08/20 00:54:51;;;;;;;14.10;9.32;;;;;;;21.02;100.00;99168.88;5068739;28;20047;-71
2023/08/20 00:57:18;;;;;;;10.95;8.45;;;;;;;21.02;100.00;99166.13;5076772;28;20362;-71
2023/08/20 00:59:47;;;;;;;11.32;8.80;;;;;;;21.07;100.00;99176.34;5068579;28;20024;-71
2023/08/20 01:02:12;;;;;;;11.93;8.30;;;;;;;21.07;100.00;99171.66;5056266;28;20545;-71
2023/08/20 01:04:37;;;;;;;16.23;9.45;;;;;;;21.10;100.00;99173.88;5064061;28;20155;-71
2023/08/20 01:07:14;;;;;;;16.63;8.98;;;;;;;21.09;100.00;99175.00;5073546;28;20024;-71
2023/08/20 01:09:50;;;;;;;13.80;9.13;;;;;;;21.02;100.00;99179.88;5071048;28;20031;-71
2023/08/20 01:12:17;;;;;;;13.55;9.25;;;;;;;20.98;100.00;99162.22;5072799;28;20024;-71
2023/08/20 01:14:42;;;;;;;14.98;9.48;;;;;;;20.82;100.00;99158.53;5062913;28;20020;-71
2023/08/20 01:17:08;;;;;;;13.60;10.00;;;;;;;20.82;100.00;99174.19;5060091;28;20448;-71
2023/08/20 01:19:34;;;;;;;14.80;9.55;;;;;;;20.87;100.00;99174.25;5065561;28;20136;-71
2023/08/20 01:22:11;;;;;;;11.30;8.90;;;;;;;20.90;100.00;99177.28;5059428;28;20026;-71
2023/08/20 01:24:58;;;;;;;13.52;9.23;;;;;;;20.88;100.00;99184.13;5068251;28;20025;-71
2023/08/20 01:27:42;;;;;;;14.43;9.50;;;;;;;20.88;100.00;99176.75;5060076;28;20032;-72
2023/08/20 01:30:08;;;;;;;13.13;8.77;;;;;;;20.83;100.00;99168.44;5065400;28;20027;-71
2023/08/20 01:32:35;;;;;;;14.57;9.32;;;;;;;20.74;100.00;99162.56;5061022;28;20079;-71
2023/08/20 01:35:00;;;;;;;13.57;8.88;;;;;;;20.81;100.00;99178.88;5067769;28;20032;-71
2023/08/20 01:37:25;;;;;;;14.57;9.80;;;;;;;20.78;100.00;99184.91;5055170;28;20020;-71
2023/08/20 01:39:51;;;;;;;12.82;9.35;;;;;;;20.76;100.00;99176.91;5066732;28;20031;-72
2023/08/20 01:42:16;;;;;;;12.55;9.73;;;;;;;20.75;100.00;99178.00;5060194;28;20031;-71
2023/08/20 01:44:42;;;;;;;18.15;9.98;;;;;;;20.81;100.00;99189.06;5056696;28;20386;-72
2023/08/20 01:47:07;;;;;;;14.95;8.75;;;;;;;20.86;100.00;99189.09;5056734;28;20033;-71
2023/08/20 01:49:33;;;;;;;14.00;9.48;;;;;;;20.82;100.00;99179.69;5057789;28;20044;-72
2023/08/20 01:51:58;;;;;;;12.68;9.05;;;;;;;20.77;100.00;99189.53;5059767;28;20501;-71
2023/08/20 01:54:24;;;;;;;15.30;8.70;;;;;;;20.77;100.00;99186.78;5071129;28;20481;-72
2023/08/20 01:56:52;;;;;;;12.52;8.60;;;;;;;20.77;100.00;99186.78;5065051;28;20070;-72
2023/08/20 01:59:18;;;;;;;10.35;8.05;;;;;;;20.75;100.00;99174.41;5052752;28;20112;-72
2023/08/20 02:01:44;;;;;;;18.65;10.13;;;;;;;20.68;100.00;99190.31;5064276;28;20035;-72
2023/08/20 02:04:09;;;;;;;14.15;10.00;;;;;;;20.61;100.00;99197.91;5056959;28;20044;-71
2023/08/20 02:06:34;;;;;;;14.93;9.35;;;;;;;20.54;100.00;99206.34;5059131;28;20052;-71
2023/08/20 02:09:00;;;;;;;12.20;10.05;;;;;;;20.38;100.00;99188.03;5056089;28;20108;-71
2023/08/20 02:11:25;;;;;;;14.10;10.27;;;;;;;20.51;100.00;99193.97;5062077;28;20515;-71
2023/08/20 02:13:51;;;;;;;12.82;10.57;;;;;;;20.45;100.00;99196.91;5054864;28;20032;-72
2023/08/20 02:16:17;;;;;;;12.70;9.98;;;;;;;20.45;100.00;99196.91;5058489;28;20039;-71
2023/08/20 02:18:43;;;;;;;12.77;10.13;;;;;;;20.40;100.00;99199.59;5066600;28;20116;-71
2023/08/20 02:21:08;;;;;;;14.73;10.55;;;;;;;20.37;100.00;99195.44;5062988;28;20032;-71
2023/08/20 02:23:34;;;;;;;14.93;11.45;;;;;;;20.33;100.00;99195.13;5069357;28;20033;-72
2023/08/20 02:26:00;;;;;;;13.85;10.23;;;;;;;20.39;100.00;99198.75;5064460;28;20074;-72
2023/08/20 02:28:25;;;;;;;16.67;9.95;;;;;;;20.38;100.00;99207.25;5060325;28;20020;-72
2023/08/20 02:30:51;;;;;;;14.50;9.60;;;;;;;20.22;100.00;99200.75;5060160;28;20082;-72
2023/08/20 02:33:16;;;;;;;14.50;10.82;;;;;;;20.16;100.00;99199.03;5065166;28;20044;-72
2023/08/20 02:35:42;;;;;;;14.13;10.45;;;;;;;20.12;100.00;99204.19;5057279;28;20659;-72
2023/08/20 02:38:09;;;;;;;18.27;10.98;;;;;;;20.01;100.00;99203.25;5064876;28;20090;-72
2023/08/20 02:40:42;;;;;;;17.75;11.60;;;;;;;19.97;100.00;99199.38;5068263;28;20024;-72
2023/08/20 02:43:07;;;;;;;18.92;12.20;;;;;;;19.88;100.00;99195.38;5066047;28;20025;-72
2023/08/20 02:45:33;;;;;;;19.63;11.40;;;;;;;19.95;100.00;99207.03;5066820;28;20077;-72
2023/08/20 02:47:59;;;;;;;15.93;11.88;;;;;;;19.85;100.00;99188.50;5054411;28;20099;-72
2023/08/20 02:50:25;;;;;;;17.00;12.13;;;;;;;19.85;100.00;99199.47;5066835;28;20406;-72
2023/08/20 02:52:50;;;;;;;17.02;11.55;;;;;;;19.87;100.00;99208.28;5061937;28;20029;-72
2023/08/20 02:55:16;;;;;;;16.75;11.25;;;;;;;19.73;100.00;99190.53;5062666;28;20523;-72
2023/08/20 02:57:41;;;;;;;15.02;11.15;;;;;;;19.83;100.00;99204.41;5067864;28;20036;-72
2023/08/20 03:00:11;;;;;;;16.65;11.25;;;;;;;19.76;100.00;99189.22;5068837;28;20029;-71
2023/08/20 03:02:36;;;;;;;16.27;10.85;;;;;;;19.77;100.00;99197.16;5061237;28;20021;-72
2023/08/20 03:05:02;;;;;;;17.88;11.48;;;;;;;19.78;100.00;99187.88;5061106;28;20028;-72
2023/08/20 03:07:28;;;;;;;15.38;11.73;;;;;;;19.76;100.00;99180.97;5065767;28;20020;-72
2023/08/20 03:09:53;;;;;;;15.27;11.05;;;;;;;19.72;100.00;99188.88;5070593;28;20381;-72
2023/08/20 03:12:19;;;;;;;16.17;11.63;;;;;;;19.71;100.00;99192.72;5071344;28;20028;-72
2023/08/20 03:14:45;;;;;;;14.82;11.70;;;;;;;19.68;100.00;99198.72;5061640;28;20027;-72
2023/08/20 03:17:10;;;;;;;17.88;11.73;;;;;;;19.71;100.00;99198.19;5061938;28;20473;-72
2023/08/20 03:19:36;;;;;;;11.45;9.20;;;;;;;19.70;100.00;99202.00;5053602;28;20028;-72
2023/08/20 03:22:01;;;;;;;18.08;9.43;;;;;;;19.58;100.00;99187.56;5056844;28;20415;-72
2023/08/20 03:24:27;;;;;;;15.05;9.90;;;;;;;19.59;100.00;99194.69;5069606;28;20025;-72
2023/08/20 03:26:52;;;;;;;16.80;9.93;;;;;;;19.53;100.00;99195.72;5068007;28;20466;-72
2023/08/20 03:29:21;;;;;;;13.20;10.05;;;;;;;19.54;100.00;99206.41;5072731;28;20040;-72
2023/08/20 03:31:46;;;;;;;15.30;9.70;;;;;;;19.51;100.00;99209.66;5068493;28;20474;-72
2023/08/20 03:34:11;;;;;;;12.85;9.60;;;;;;;19.46;100.00;99218.66;5062923;28;20286;-72
2023/08/20 03:36:37;;;;;;;14.15;9.45;;;;;;;19.36;100.00;99206.69;5053866;28;20017;-72
2023/08/20 03:39:03;;;;;;;15.13;10.30;;;;;;;19.26;100.00;99210.13;5074833;28;20032;-71
2023/08/20 03:41:28;;;;;;;13.98;10.88;;;;;;;19.28;100.00;99216.16;5071041;28;20098;-72
2023/08/20 03:43:54;;;;;;;16.80;11.40;;;;;;;19.23;100.00;99210.59;5073342;28;20469;-72
2023/08/20 03:46:19;;;;;;;16.75;11.75;;;;;;;19.20;100.00;99208.38;5060916;28;20036;-72
2023/08/20 03:48:45;;;;;;;17.05;10.50;;;;;;;19.26;100.00;99215.63;5063639;28;20474;-72
2023/08/20 03:51:10;;;;;;;15.48;10.95;;;;;;;19.21;100.00;99205.38;5064042;28;20056;-72
2023/08/20 03:53:36;;;;;;;19.38;11.50;;;;;;;19.24;100.00;99215.03;5059475;28;20027;-72
2023/08/20 03:56:01;;;;;;;15.35;10.38;;;;;;;19.17;100.00;99204.22;5056828;28;20395;-71
2023/08/20 03:58:27;;;;;;;17.30;12.02;;;;;;;19.23;100.00;99214.19;5058520;28;20496;-72
2023/08/20 04:00:52;;;;;;;18.38;12.55;;;;;;;19.28;100.00;99221.66;5065841;28;20035;-73
2023/08/20 04:03:19;;;;;;;13.40;10.77;;;;;;;19.09;100.00;99212.03;5057578;28;20039;-72
2023/08/20 04:05:45;;;;;;;17.27;10.63;;;;;;;19.13;100.00;99224.19;5077746;28;20020;-73
2023/08/20 04:08:10;;;;;;;17.25;12.00;;;;;;;19.06;100.00;99216.09;5056838;28;20483;-73
2023/08/20 04:10:41;;;;;;;16.10;11.20;;;;;;;18.98;100.00;99222.81;5070267;28;20029;-73
2023/08/20 04:13:07;;;;;;;15.35;11.50;;;;;;;19.04;100.00;99219.06;5065104;28;20028;-72
2023/08/20 04:15:32;;;;;;;16.17;12.07;;;;;;;19.13;100.00;99246.94;5064743;28;20285;-72
2023/08/20 04:17:58;;;;;;;16.58;11.32;;;;;;;19.18;100.00;99243.47;5061894;28;20024;-72
2023/08/20 04:20:23;;;;;;;16.13;12.05;;;;;;;19.23;100.00;99246.25;5074653;28;20026;-74
2023/08/20 04:22:49;;;;;;;18.77;11.77;;;;;;;19.27;100.00;99247.44;5068948;28;20020;-73
2023/08/20 04:25:14;;;;;;;17.88;11.75;;;;;;;19.18;100.00;99225.09;5062327;28;20025;-75
2023/08/20 04:27:39;;;;;;;17.70;12.25;;;;;;;19.29;100.00;99228.81;5074768;28;20048;-78
2023/08/20 04:30:06;;;;;;;20.50;12.50;;;;;;;19.27;100.00;99230.97;5069404;28;20036;-77
2023/08/20 04:32:32;;;;;;;19.75;13.05;;;;;;;19.25;100.00;99230.41;5072027;28;20029;-76
2023/08/20 04:34:57;;;;;;;23.23;12.10;;;;;;;19.30;100.00;99229.66;5066382;28;20029;-77
2023/08/20 04:37:22;;;;;;;21.83;12.02;;;;;;;19.30;100.00;99230.47;5059948;28;20039;-77
2023/08/20 04:39:48;;;;;;;16.75;11.48;;;;;;;19.34;100.00;99222.59;5074352;28;20036;-76
2023/08/20 04:42:14;;;;;;;16.25;10.90;;;;;;;19.40;100.00;99230.63;5074348;28;20028;-79
2023/08/20 04:44:39;;;;;;;14.13;11.38;;;;;;;19.40;100.00;99216.09;5079286;28;20029;-78
2023/08/20 04:47:04;;;;;;;16.45;11.25;;;;;;;19.35;100.00;99207.78;5065621;28;20036;-79
2023/08/20 04:49:30;;;;;;;14.45;10.68;;;;;;;19.51;100.00;99217.91;5068537;28;20021;-81
2023/08/20 04:51:55;;;;;;;15.43;10.70;;;;;;;19.53;100.00;99217.66;5074589;28;20043;-81
2023/08/20 04:54:21;;;;;;;16.00;10.07;;;;;;;19.51;100.00;99208.84;5058984;28;20020;-81
2023/08/20 04:56:46;;;;;;;18.20;10.43;;;;;;;19.77;100.00;99232.84;5067110;28;20017;-82
2023/08/20 04:59:12;;;;;;;16.15;10.38;;;;;;;19.77;100.00;99219.13;5065548;28;20741;-80
2023/08/20 05:01:39;;;;;;;12.23;9.82;;;;;;;19.88;100.00;99220.94;5069998;28;20036;-81
2023/08/20 05:04:04;;;;;;;13.35;9.63;;;;;;;19.96;100.00;99218.84;5072022;28;20032;-72
2023/08/20 05:06:29;;;;;;;13.77;9.63;;;;;;;19.97;100.00;99215.03;5068979;28;20027;-74
2023/08/20 05:08:55;;;;;;;14.90;9.55;;;;;;;20.03;100.00;99211.25;5069617;28;20017;-73
2023/08/20 05:11:20;;;;;;;13.27;9.98;;;;;;;20.05;100.00;99198.09;5062004;28;20041;-77
2023/08/20 05:13:47;;;;;;;12.95;8.82;;;;;;;20.18;100.00;99214.19;5073288;28;20169;-77
2023/08/20 05:16:13;;;;;;;13.65;9.05;;;;;;;20.40;100.00;99218.81;5064990;28;20383;-74
2023/08/20 05:18:38;;;;;;;13.52;9.35;;;;;;;20.40;100.00;99210.59;5062794;28;20024;-74
2023/08/20 05:21:03;;;;;;;11.43;8.80;;;;;;;20.52;100.00;99216.78;5074541;28;20060;-81
2023/08/20 05:23:29;;;;;;;13.90;9.18;;;;;;;20.61;100.00;99201.50;5063697;28;20107;-79
2023/08/20 05:25:54;;;;;;;13.50;9.27;;;;;;;20.88;100.00;99214.41;5075260;28;20385;-82
2023/08/20 05:28:19;;;;;;;14.82;9.23;;;;;;;20.95;100.00;99209.53;5078950;28;20025;-81
2023/08/20 05:30:54;;;;;;;13.32;8.40;;;;;;;21.13;100.00;99219.31;5062199;28;20433;-72
2023/08/20 05:33:19;;;;;;;13.50;9.80;;;;;;;21.22;100.00;99206.72;5065447;28;20761;-78
2023/08/20 05:35:45;;;;;;;16.67;9.43;;;;;;;21.26;100.00;99191.34;5071377;28;20059;-74
2023/08/20 05:38:10;;;;;;;13.25;9.55;;;;;;;21.40;100.00;99197.25;5070722;28;20028;-73
2023/08/20 05:40:36;;;;;;;11.93;9.02;;;;;;;21.43;100.00;99181.03;5071995;28;20029;-74
2023/08/20 05:43:01;;;;;;;10.45;8.65;;;;;;;21.59;100.00;99170.13;5060190;28;20025;-75
2023/08/20 05:45:26;;;;;;;10.93;8.63;;;;;;;21.59;100.00;99179.22;5062292;28;20020;-75
2023/08/20 05:47:51;;;;;;;11.68;8.90;;;;;;;21.65;100.00;99171.81;5069820;28;20020;-75
2023/08/20 05:50:17;;;;;;;12.43;8.90;;;;;;;21.94;100.00;99177.72;5063639;28;20044;-75
2023/08/20 05:52:42;;;;;;;11.88;8.55;;;;;;;22.59;100.00;99193.97;5064136;28;20367;-76
2023/08/20 05:55:08;;;;;;;11.98;8.63;;;;;;;23.12;100.00;99172.50;5070493;28;20060;-75
2023/08/20 05:57:33;;;;;;;10.20;7.43;;;;;;;23.66;100.00;99165.50;5060475;28;20029;-75
2023/08/20 05:59:58;;;;;;;15.02;7.80;;;;;;;24.26;100.00;99172.78;5061363;28;20073;-75
2023/08/20 06:02:23;;;;;;;10.52;7.47;;;;;;;24.67;100.00;99153.19;5073714;28;20039;-76
2023/08/20 06:04:50;;;;;;;9.60;7.78;;;;;;;25.03;100.00;99147.38;5063340;28;20020;-76
2023/08/20 06:07:16;;;;;;;12.52;7.18;;;;;;;26.52;100.00;99148.50;5068557;28;20104;-76
2023/08/20 06:09:41;;;;;;;8.95;6.82;;;;;;;28.23;100.00;99155.13;5063344;28;20443;-75
2023/08/20 06:12:07;;;;;;;11.25;7.45;;;;;;;29.21;100.00;99162.06;5068510;28;20074;-75
2023/08/20 06:14:32;;;;;;;12.98;6.68;;;;;;;30.58;100.00;99162.94;5053844;28;20550;-76
2023/08/20 06:16:57;;;;;;;9.93;6.47;;;;;;;31.83;100.00;99159.31;5061527;28;20024;-75
2023/08/20 06:19:23;;;;;;;14.20;6.97;;;;;;;30.77;100.00;99165.41;5071659;28;20413;-76
2023/08/20 06:21:48;;;;;;;12.10;6.97;;;;;;;30.23;100.00;99164.00;5071257;28;20482;-76
2023/08/20 06:24:13;;;;;;;10.65;6.53;;;;;;;29.53;100.00;99185.19;5068813;28;20456;-76
2023/08/20 06:26:39;;;;;;;8.95;6.40;;;;;;;31.00;100.00;99182.03;5067725;28;20382;-76
2023/08/20 06:29:04;;;;;;;13.45;7.05;;;;;;;33.00;100.00;99171.91;5054166;28;20025;-76
2023/08/20 06:31:29;;;;;;;12.85;6.90;;;;;;;34.10;100.00;99174.19;5061254;28;20067;-76
2023/08/20 06:33:55;;;;;;;10.05;7.00;;;;;;;33.20;100.00;99173.88;5059157;28;20035;-76
2023/08/20 06:36:20;;;;;;;7.47;6.22;;;;;;;32.38;100.00;99168.72;5067428;28;20063;-76
2023/08/20 06:38:45;;;;;;;9.90;6.30;;;;;;;31.35;100.00;99182.78;5056135;28;20020;-76
2023/08/20 06:41:10;;;;;;;10.20;7.30;;;;;;;30.41;100.00;99170.47;5075725;28;20277;-76
2023/08/20 06:43:36;;;;;;;9.38;7.43;;;;;;;28.87;100.00;99174.56;5067424;28;20017;-76
2023/08/20 06:46:01;;;;;;;11.50;8.50;;;;;;;27.68;100.00;99169.84;5054253;28;20394;-75
2023/08/20 06:48:26;;;;;;;11.02;8.02;;;;;;;27.81;100.00;99153.53;5068356;28;20024;-75
2023/08/20 06:50:52;;;;;;;10.80;7.90;;;;;;;27.20;100.00;99172.97;5065882;28;20498;-75
2023/08/20 06:53:17;;;;;;;14.43;8.52;;;;;;;27.16;100.00;99185.78;5067689;28;20149;-75
2023/08/20 06:55:42;;;;;;;13.32;9.45;;;;;;;26.87;100.00;99170.13;5065942;28;20032;-75
2023/08/20 06:58:08;;;;;;;13.27;8.07;;;;;;;26.99;100.00;99172.47;5052950;28;20025;-75
2023/08/20 07:00:33;;;;;;;11.40;7.43;;;;;;;27.92;100.00;99185.56;5068479;28;20446;-76
2023/08/20 07:02:59;;;;;;;12.32;7.80;;;;;;;30.20;100.00;99168.25;5060320;28;20078;-76
2023/08/20 07:05:25;;;;;;;12.75;7.93;;;;;;;31.87;100.00;99157.47;5054356;28;20103;-76
2023/08/20 07:07:50;;;;;;;8.93;6.88;;;;;;;34.45;100.00;99180.97;5069516;28;20059;-76
2023/08/20 07:10:15;;;;;;;14.43;7.68;;;;;;;35.84;91.81;99169.25;5059051;28;20389;-75
2023/08/20 07:12:40;;;;;;;16.13;7.35;;;;;;;37.24;80.42;99180.94;5057776;28;20017;-76
2023/08/20 07:15:07;;;;;;;8.65;6.22;;;;;;;38.41;72.16;99184.22;5071823;28;20036;-76
2023/08/20 07:17:32;;;;;;;6.00;5.38;;;;;;;38.60;71.76;99193.78;5066087;28;20024;-75
2023/08/20 07:19:57;;;;;;;8.53;6.10;;;;;;;38.49;68.21;99190.78;5066965;28;20562;-76
2023/08/20 07:22:22;;;;;;;9.30;6.80;;;;;;;39.28;64.86;99183.38;5068243;28;20279;-76
2023/08/20 07:24:48;;;;;;;10.93;6.10;;;;;;;39.37;64.51;99187.53;5066911;28;20035;-76
2023/08/20 07:27:13;;;;;;;8.23;6.00;;;;;;;39.26;64.81;99186.56;5050786;28;20598;-76
2023/08/20 07:29:38;;;;;;;9.87;5.97;;;;;;;39.29;63.55;99193.47;5050201;28;20266;-76
2023/08/20 07:32:04;;;;;;;10.52;5.85;;;;;;;37.80;67.42;99190.84;5062313;28;20288;-76
2023/08/20 07:34:34;;;;;;;9.95;5.47;;;;;;;37.81;69.35;99190.47;5068818;28;20051;-76
2023/08/20 07:36:59;;;;;;;7.35;6.43;;;;;;;36.69;70.76;99200.72;5068245;28;20063;-76
2023/08/20 07:39:25;;;;;;;8.52;5.40;;;;;;;36.90;75.21;99210.81;5068119;28;20056;-76
2023/08/20 07:41:50;;;;;;;9.70;6.23;;;;;;;37.96;70.14;99208.47;5061652;28;20020;-75
2023/08/20 07:44:15;;;;;;;8.87;5.90;;;;;;;38.84;67.15;99215.94;5071194;28;20271;-81
2023/08/20 07:46:41;;;;;;;7.97;6.00;;;;;;;40.35;62.06;99209.06;5069088;28;20158;-81
2023/08/20 07:49:06;;;;;;;9.63;5.63;;;;;;;40.46;60.58;99219.31;5077639;28;20748;-82
2023/08/20 07:51:32;;;;;;;9.55;5.97;;;;;;;41.25;58.01;99218.94;5067486;28;20056;-79
2023/08/20 07:53:59;;;;;;;7.43;5.82;;;;;;;41.36;55.91;99209.22;5062143;28;20496;-80
2023/08/20 07:56:24;;;;;;;7.40;5.27;;;;;;;42.52;54.10;99210.19;5079643;28;20029;-80
2023/08/20 07:58:50;;;;;;;9.07;6.35;;;;;;;40.68;56.09;99208.13;5078590;28;20772;-80
2023/08/20 08:01:16;;;;;;;7.00;5.35;;;;;;;40.57;56.80;99210.84;5076186;28;20500;-76
2023/08/20 08:03:41;;;;;;;7.30;5.30;;;;;;;41.49;56.38;99212.50;5065580;28;20031;-76
2023/08/20 08:06:07;;;;;;;7.77;4.97;;;;;;;41.99;55.78;99206.94;5068917;28;20111;-76
2023/08/20 08:08:32;;;;;;;8.13;5.50;;;;;;;41.88;54.98;99205.31;5062334;28;20535;-76
2023/08/20 08:10:57;;;;;;;7.20;5.40;;;;;;;42.03;54.25;99204.13;5055004;28;20100;-76
2023/08/20 08:13:23;;;;;;;8.43;5.40;;;;;;;41.86;54.15;99213.41;5054255;28;20564;-76
2023/08/20 08:15:49;;;;;;;12.77;5.43;;;;;;;41.13;54.28;99205.91;5074519;28;20103;-76
2023/08/20 08:18:15;;;;;;;8.50;6.50;;;;;;;37.53;62.77;99215.38;5067977;28;20111;-76
2023/08/20 08:20:40;;;;;;;8.80;5.68;;;;;;;38.27;65.69;99215.06;5055329;28;20534;-76
2023/08/20 08:23:06;;;;;;;9.32;4.78;;;;;;;40.61;61.12;99208.03;5055337;28;20044;-76
2023/08/20 08:25:31;;;;;;;6.93;5.72;;;;;;;41.05;57.64;99205.03;5075193;28;20417;-76
2023/08/20 08:27:56;;;;;;;6.43;5.00;;;;;;;42.38;54.94;99211.03;5072445;28;20020;-76
2023/08/20 08:30:22;;;;;;;7.80;5.22;;;;;;;42.89;53.58;99224.75;5061126;28;20147;-76
2023/08/20 08:32:47;;;;;;;8.93;5.20;;;;;;;41.25;56.75;99213.28;5069808;28;20028;-75
2023/08/20 08:35:13;;;;;;;9.23;5.53;;;;;;;40.18;57.47;99213.41;5065896;28;20440;-76
2023/08/20 08:37:38;;;;;;;7.43;5.80;;;;;;;41.34;55.94;99216.53;5063904;28;20037;-75
2023/08/20 08:40:06;;;;;;;8.97;5.50;;;;;;;42.71;53.27;99218.28;5069283;28;20278;-75
2023/08/20 08:42:34;;;;;;;6.13;5.30;;;;;;;45.23;47.89;99218.06;5061410;28;20290;-75
2023/08/20 08:45:00;;;;;;;9.20;5.75;;;;;;;44.96;47.47;99215.09;5073077;28;20139;-76
2023/08/20 08:47:27;;;;;;;9.20;5.38;;;;;;;45.04;47.26;99206.03;5073663;28;20370;-75
2023/08/20 08:49:55;;;;;;;14.20;5.40;;;;;;;44.52;48.31;99206.22;5056601;28;20113;-76
2023/08/20 08:52:22;;;;;;;6.82;4.80;;;;;;;43.20;49.49;99205.09;5067947;28;20787;-75
2023/08/20 08:54:47;;;;;;;7.47;5.07;;;;;;;42.06;52.21;99213.88;5062060;28;20033;-76
2023/08/20 08:57:14;;;;;;;8.40;6.40;;;;;;;38.54;58.89;99222.41;5066616;28;20073;-76
2023/08/20 08:59:40;;;;;;;7.50;5.35;;;;;;;38.00;63.13;99217.88;5058989;28;20036;-75
2023/08/20 09:02:09;;;;;;;9.55;5.78;;;;;;;38.88;61.07;99213.97;5064781;28;20040;-75
2023/08/20 09:04:39;;;;;;;9.60;5.80;;;;;;;40.69;56.67;99213.41;5067188;28;20021;-76
2023/08/20 09:07:04;;;;;;;7.65;5.75;;;;;;;40.99;55.54;99212.31;5059803;28;20609;-75
2023/08/20 09:09:30;;;;;;;9.43;5.93;;;;;;;42.95;51.23;99210.09;5062277;28;20096;-75
2023/08/20 09:11:55;;;;;;;10.27;4.95;;;;;;;44.88;47.94;99208.66;5066443;28;20029;-74
2023/08/20 09:14:28;;;;;;;8.23;5.20;;;;;;;45.91;45.57;99212.16;5072537;28;20028;-74
2023/08/20 09:16:56;;;;;;;7.10;5.30;;;;;;;44.06;47.71;99207.44;5055771;28;20053;-74
2023/08/20 09:19:21;;;;;;;9.02;5.28;;;;;;;43.03;48.04;99203.16;5071199;28;20104;-74
2023/08/20 09:21:48;;;;;;;8.55;5.07;;;;;;;42.99;49.56;99208.84;5060501;28;20048;-74
2023/08/20 09:24:13;;;;;;;5.37;4.03;;;;;;;44.21;48.15;99210.16;5065521;28;20062;-75
2023/08/20 09:26:39;;;;;;;5.10;3.88;;;;;;;45.18;46.68;99209.97;5065193;28;20020;-75
2023/08/20 09:29:04;;;;;;;5.72;4.15;;;;;;;47.27;43.67;99202.28;5066174;28;20033;-75
2023/08/20 09:31:39;;;;;;;6.47;3.83;;;;;;;47.94;42.83;99213.47;5062749;28;20111;-75
2023/08/20 09:34:05;;;;;;;9.05;4.20;;;;;;;46.82;42.62;99209.34;5062489;28;20752;-75
2023/08/20 09:36:34;;;;;;;7.32;4.63;;;;;;;46.47;43.36;99202.25;5058508;28;20025;-75
2023/08/20 09:39:03;;;;;;;7.15;4.63;;;;;;;45.72;42.87;99210.00;5066710;28;20070;-74
2023/08/20 09:41:29;;;;;;;7.60;4.75;;;;;;;45.96;43.08;99202.31;5050789;28;20040;-75
2023/08/20 09:44:02;;;;;;;7.00;4.38;;;;;;;46.13;42.29;99206.09;5063325;28;20437;-75
2023/08/20 09:46:31;;;;;;;5.43;4.07;;;;;;;45.61;42.96;99195.09;5061133;28;20094;-74
2023/08/20 09:48:57;;;;;;;7.93;4.25;;;;;;;45.06;45.13;99205.59;5062795;28;20502;-74
2023/08/20 09:51:28;;;;;;;6.30;4.10;;;;;;;45.51;43.21;99196.03;5062758;28;20056;-74
2023/08/20 09:54:07;;;;;;;5.45;3.70;;;;;;;46.21;41.98;99199.00;5059689;28;20414;-74
2023/08/20 09:56:38;;;;;;;6.78;3.80;;;;;;;45.83;42.36;99201.28;5062384;28;20036;-75
2023/08/20 09:59:04;;;;;;;6.22;4.18;;;;;;;47.01;40.75;99193.44;5059122;28;20078;-75
2023/08/20 10:01:30;;;;;;;6.32;3.75;;;;;;;47.51;40.08;99203.81;5055452;28;20514;-75
2023/08/20 10:03:56;;;;;;;5.80;3.53;;;;;;;48.75;39.64;99201.09;5060775;28;20017;-75
2023/08/20 10:06:23;;;;;;;5.53;3.70;;;;;;;48.22;39.31;99201.28;5060322;28;20060;-75
2023/08/20 10:08:50;;;;;;;3.80;2.95;;;;;;;48.58;38.59;99190.91;5062595;28;20013;-75
2023/08/20 10:11:16;;;;;;;5.35;3.42;;;;;;;48.35;38.77;99186.19;5055844;28;20498;-75
2023/08/20 10:13:41;;;;;;;5.70;3.60;;;;;;;48.61;39.50;99195.75;5063224;28;20029;-75
2023/08/20 10:16:06;;;;;;;4.25;3.30;;;;;;;49.32;38.97;99192.88;5063302;28;20460;-75
2023/08/20 10:18:34;;;;;;;4.53;3.20;;;;;;;47.93;40.17;99192.59;5068411;28;20083;-74
2023/08/20 10:21:01;;;;;;;6.05;3.60;;;;;;;46.90;40.50;99192.81;5067560;28;20490;-74
2023/08/20 10:23:26;;;;;;;5.43;2.80;;;;;;;48.72;37.91;99190.50;5055689;28;20028;-74
2023/08/20 10:25:53;;;;;;;6.33;3.07;;;;;;;48.19;38.77;99192.78;5065654;28;20028;-75
2023/08/20 10:28:24;;;;;;;4.15;3.38;;;;;;;48.10;37.34;99201.19;5065436;28;20021;-75
2023/08/20 10:31:12;;;;;;;5.78;2.75;;;;;;;48.01;38.58;99201.81;5055355;28;20032;-75
2023/08/20 10:33:48;;;;;;;4.35;3.13;;;;;;;47.46;39.00;99198.63;5054738;28;20044;-74
2023/08/20 10:36:17;;;;;;;5.88;3.20;;;;;;;48.43;37.42;99194.16;5068053;28;20051;-73
2023/08/20 10:38:44;;;;;;;4.07;2.90;;;;;;;48.59;38.11;99184.72;5064250;28;20029;-74
2023/08/20 10:41:10;;;;;;;4.20;2.78;;;;;;;50.15;36.72;99185.25;5069870;28;20063;-74
2023/08/20 10:43:39;;;;;;;4.57;2.90;;;;;;;49.46;37.03;99183.78;5054405;28;20391;-74
2023/08/20 10:46:10;;;;;;;5.10;2.70;;;;;;;49.01;36.67;99189.69;5060733;28;20434;-74
2023/08/20 10:48:38;;;;;;;4.60;3.10;;;;;;;47.47;37.09;99194.47;5067696;28;20667;-74
2023/08/20 10:51:09;;;;;;;4.80;3.22;;;;;;;47.36;36.76;99193.91;5070774;28;20078;-74
2023/08/20 10:53:34;;;;;;;5.47;3.30;;;;;;;45.88;38.14;99178.72;5056143;28;20033;-74
2023/08/20 10:56:08;;;;;;;5.13;2.97;;;;;;;45.94;37.91;99181.94;5061104;28;20103;-75
2023/08/20 10:58:39;;;;;;;4.95;3.08;;;;;;;47.63;37.73;99174.44;5068204;28;20047;-74
2023/08/20 11:01:19;;;;;;;6.57;3.25;;;;;;;47.67;37.16;99179.28;5061584;28;20025;-74
2023/08/20 11:03:45;;;;;;;6.45;2.70;;;;;;;47.89;35.71;99171.78;5041333;28;20036;-75
2023/08/20 11:06:12;;;;;;;4.93;3.10;;;;;;;48.85;35.27;99177.00;5068626;28;20052;-74
2023/08/20 11:08:38;;;;;;;6.68;2.30;;;;;;;49.46;35.28;99163.66;5071291;28;20035;-75
2023/08/20 11:11:03;;;;;;;5.88;3.00;;;;;;;49.10;35.32;99166.81;5070229;28;20119;-75
2023/08/20 11:13:31;;;;;;;5.23;2.50;;;;;;;49.76;34.63;99153.66;5067819;28;20116;-75
2023/08/20 11:15:57;;;;;;;4.97;2.40;;;;;;;48.90;35.27;99164.97;5062514;28;20024;-74
2023/08/20 11:18:22;;;;;;;3.77;2.27;;;;;;;49.13;36.00;99165.94;5067506;28;20033;-75